sensor_id;sensor_type;location;lat;lon;timestamp;P1;durP1;ratioP1;P2;durP2;ratioP2
75038;SDS011;63609;49.992;14.512;2022-11-03T00:01:36;6.50;;;3.33;;
75038;SDS011;63609;49.992;14.512;2022-11-03T00:04:07;8.90;;;3.72;;
75038;SDS011;63609;49.992;14.512;2022-11-03T00:06:35;8.93;;;3.88;;
75038;SDS011;63609;49.992;14.512;2022-11-03T00:09:03;9.20;;;3.67;;
75038;SDS011;63609;49.992;14.512;2022-11-03T00:11:32;7.45;;;3.90;;
75038;SDS011;63609;49.992;14.512;2022-11-03T00:14:00;11.13;;;3.83;;
75038;SDS011;63609;49.992;14.512;2022-11-03T00:16:27;9.15;;;3.70;;
75038;SDS011;63609;49.992;14.512;2022-11-03T00:21:21;7.32;;;3.90;;
75038;SDS011;63609;49.992;14.512;2022-11-03T00:23:48;11.63;;;4.38;;
75038;SDS011;63609;49.992;14.512;2022-11-03T00:26:19;11.02;;;3.92;;
75038;SDS011;63609;49.992;14.512;2022-11-03T00:28:48;9.20;;;4.03;;
75038;SDS011;63609;49.992;14.512;2022-11-03T00:31:23;12.38;;;4.60;;
75038;SDS011;63609;49.992;14.512;2022-11-03T00:33:51;13.88;;;5.13;;
75038;SDS011;63609;49.992;14.512;2022-11-03T00:36:20;9.77;;;4.03;;
75038;SDS011;63609;49.992;14.512;2022-11-03T00:38:49;9.45;;;3.90;;
75038;SDS011;63609;49.992;14.512;2022-11-03T00:41:15;17.20;;;4.35;;
75038;SDS011;63609;49.992;14.512;2022-11-03T00:43:43;11.98;;;4.35;;
75038;SDS011;63609;49.992;14.512;2022-11-03T00:46:09;10.93;;;4.70;;
75038;SDS011;63609;49.992;14.512;2022-11-03T00:48:36;11.65;;;5.45;;
75038;SDS011;63609;49.992;14.512;2022-11-03T00:53:36;16.60;;;6.40;;
75038;SDS011;63609;49.992;14.512;2022-11-03T00:56:04;23.13;;;7.65;;
75038;SDS011;63609;49.992;14.512;2022-11-03T00:58:32;29.20;;;9.93;;
75038;SDS011;63609;49.992;14.512;2022-11-03T01:01:00;24.08;;;8.48;;
75038;SDS011;63609;49.992;14.512;2022-11-03T01:03:27;14.38;;;5.35;;
75038;SDS011;63609;49.992;14.512;2022-11-03T01:05:54;13.80;;;5.50;;
75038;SDS011;63609;49.992;14.512;2022-11-03T01:08:39;14.45;;;4.70;;
75038;SDS011;63609;49.992;14.512;2022-11-03T01:13:59;10.85;;;4.63;;
75038;SDS011;63609;49.992;14.512;2022-11-03T01:16:26;10.05;;;5.10;;
75038;SDS011;63609;49.992;14.512;2022-11-03T01:18:53;9.65;;;4.15;;
75038;SDS011;63609;49.992;14.512;2022-11-03T01:21:20;9.60;;;4.38;;
75038;SDS011;63609;49.992;14.512;2022-11-03T01:23:47;12.95;;;4.15;;
75038;SDS011;63609;49.992;14.512;2022-11-03T01:26:14;9.45;;;4.68;;
75038;SDS011;63609;49.992;14.512;2022-11-03T01:28:42;13.25;;;4.75;;
75038;SDS011;63609;49.992;14.512;2022-11-03T01:31:15;11.80;;;4.60;;
75038;SDS011;63609;49.992;14.512;2022-11-03T01:33:43;12.57;;;4.40;;
75038;SDS011;63609;49.992;14.512;2022-11-03T01:36:14;11.13;;;4.05;;
75038;SDS011;63609;49.992;14.512;2022-11-03T01:38:41;11.25;;;4.07;;
75038;SDS011;63609;49.992;14.512;2022-11-03T01:41:10;9.55;;;4.80;;
75038;SDS011;63609;49.992;14.512;2022-11-03T01:43:40;8.07;;;4.53;;
75038;SDS011;63609;49.992;14.512;2022-11-03T01:48:38;14.20;;;5.00;;
75038;SDS011;63609;49.992;14.512;2022-11-03T01:51:08;14.60;;;5.22;;
75038;SDS011;63609;49.992;14.512;2022-11-03T01:53:39;11.65;;;5.28;;
75038;SDS011;63609;49.992;14.512;2022-11-03T01:56:10;16.42;;;5.55;;
75038;SDS011;63609;49.992;14.512;2022-11-03T01:58:39;14.13;;;5.28;;
75038;SDS011;63609;49.992;14.512;2022-11-03T02:01:10;17.02;;;6.03;;
75038;SDS011;63609;49.992;14.512;2022-11-03T02:03:40;10.80;;;4.60;;
75038;SDS011;63609;49.992;14.512;2022-11-03T02:06:11;9.75;;;4.63;;
75038;SDS011;63609;49.992;14.512;2022-11-03T02:08:40;9.68;;;4.38;;
75038;SDS011;63609;49.992;14.512;2022-11-03T02:11:12;10.48;;;4.55;;
75038;SDS011;63609;49.992;14.512;2022-11-03T02:13:58;12.75;;;5.32;;
75038;SDS011;63609;49.992;14.512;2022-11-03T02:16:25;12.75;;;4.47;;
75038;SDS011;63609;49.992;14.512;2022-11-03T02:18:54;11.32;;;4.50;;
75038;SDS011;63609;49.992;14.512;2022-11-03T02:21:44;10.15;;;4.95;;
75038;SDS011;63609;49.992;14.512;2022-11-03T02:24:39;11.48;;;5.10;;
75038;SDS011;63609;49.992;14.512;2022-11-03T02:27:19;10.70;;;4.65;;
75038;SDS011;63609;49.992;14.512;2022-11-03T02:29:46;9.50;;;4.63;;
75038;SDS011;63609;49.992;14.512;2022-11-03T02:37:37;10.45;;;4.45;;
75038;SDS011;63609;49.992;14.512;2022-11-03T02:40:12;12.75;;;5.15;;
75038;SDS011;63609;49.992;14.512;2022-11-03T02:42:47;12.20;;;5.20;;
75038;SDS011;63609;49.992;14.512;2022-11-03T02:45:18;12.85;;;4.90;;
75038;SDS011;63609;49.992;14.512;2022-11-03T02:47:48;11.63;;;4.93;;
75038;SDS011;63609;49.992;14.512;2022-11-03T02:50:19;9.95;;;5.10;;
75038;SDS011;63609;49.992;14.512;2022-11-03T02:52:47;13.10;;;4.93;;
75038;SDS011;63609;49.992;14.512;2022-11-03T02:55:16;12.18;;;5.03;;
75038;SDS011;63609;49.992;14.512;2022-11-03T02:58:29;9.02;;;4.72;;
75038;SDS011;63609;49.992;14.512;2022-11-03T03:00:51;11.93;;;5.55;;
75038;SDS011;63609;49.992;14.512;2022-11-03T03:03:25;12.85;;;5.00;;
75038;SDS011;63609;49.992;14.512;2022-11-03T03:05:59;8.95;;;4.40;;
75038;SDS011;63609;49.992;14.512;2022-11-03T03:08:30;10.75;;;5.43;;
75038;SDS011;63609;49.992;14.512;2022-11-03T03:11:00;12.77;;;5.50;;
75038;SDS011;63609;49.992;14.512;2022-11-03T03:13:29;10.70;;;5.03;;
75038;SDS011;63609;49.992;14.512;2022-11-03T03:18:46;12.35;;;4.78;;
75038;SDS011;63609;49.992;14.512;2022-11-03T03:21:19;8.52;;;4.28;;
75038;SDS011;63609;49.992;14.512;2022-11-03T03:23:50;10.13;;;4.68;;
75038;SDS011;63609;49.992;14.512;2022-11-03T03:28:54;8.05;;;3.97;;
75038;SDS011;63609;49.992;14.512;2022-11-03T03:31:24;14.32;;;4.88;;
75038;SDS011;63609;49.992;14.512;2022-11-03T03:33:53;12.13;;;4.03;;
75038;SDS011;63609;49.992;14.512;2022-11-03T03:36:30;8.73;;;4.30;;
75038;SDS011;63609;49.992;14.512;2022-11-03T03:38:59;8.50;;;3.75;;
75038;SDS011;63609;49.992;14.512;2022-11-03T03:41:29;7.63;;;4.07;;
75038;SDS011;63609;49.992;14.512;2022-11-03T03:43:59;8.23;;;3.65;;
75038;SDS011;63609;49.992;14.512;2022-11-03T03:49:02;8.45;;;4.13;;
75038;SDS011;63609;49.992;14.512;2022-11-03T03:51:29;9.23;;;4.20;;
75038;SDS011;63609;49.992;14.512;2022-11-03T03:53:57;8.80;;;3.85;;
75038;SDS011;63609;49.992;14.512;2022-11-03T03:56:29;6.47;;;3.72;;
75038;SDS011;63609;49.992;14.512;2022-11-03T03:59:01;11.45;;;4.30;;
75038;SDS011;63609;49.992;14.512;2022-11-03T04:03:54;10.10;;;4.47;;
75038;SDS011;63609;49.992;14.512;2022-11-03T04:06:22;11.23;;;4.22;;
75038;SDS011;63609;49.992;14.512;2022-11-03T04:08:48;7.10;;;3.83;;
75038;SDS011;63609;49.992;14.512;2022-11-03T04:11:15;8.48;;;4.25;;
75038;SDS011;63609;49.992;14.512;2022-11-03T04:14:00;12.18;;;4.75;;
75038;SDS011;63609;49.992;14.512;2022-11-03T04:16:46;9.65;;;3.97;;
75038;SDS011;63609;49.992;14.512;2022-11-03T04:19:31;10.75;;;4.30;;
75038;SDS011;63609;49.992;14.512;2022-11-03T04:22:16;10.82;;;4.50;;
75038;SDS011;63609;49.992;14.512;2022-11-03T04:24:50;7.88;;;3.88;;
75038;SDS011;63609;49.992;14.512;2022-11-03T04:32:15;8.15;;;3.72;;
75038;SDS011;63609;49.992;14.512;2022-11-03T04:34:44;6.88;;;3.72;;
75038;SDS011;63609;49.992;14.512;2022-11-03T04:37:12;9.15;;;3.40;;
75038;SDS011;63609;49.992;14.512;2022-11-03T04:39:39;27.27;;;17.95;;
75038;SDS011;63609;49.992;14.512;2022-11-03T04:42:17;11.82;;;9.45;;
75038;SDS011;63609;49.992;14.512;2022-11-03T04:44:46;8.60;;;3.88;;
75038;SDS011;63609;49.992;14.512;2022-11-03T04:47:15;6.00;;;3.05;;
75038;SDS011;63609;49.992;14.512;2022-11-03T04:49:43;8.15;;;3.42;;
75038;SDS011;63609;49.992;14.512;2022-11-03T04:52:16;9.15;;;4.00;;
75038;SDS011;63609;49.992;14.512;2022-11-03T04:54:46;7.47;;;3.58;;
75038;SDS011;63609;49.992;14.512;2022-11-03T04:57:15;5.97;;;3.30;;
75038;SDS011;63609;49.992;14.512;2022-11-03T04:59:44;7.10;;;3.80;;
75038;SDS011;63609;49.992;14.512;2022-11-03T05:02:17;6.20;;;3.47;;
75038;SDS011;63609;49.992;14.512;2022-11-03T05:04:46;7.18;;;3.55;;
75038;SDS011;63609;49.992;14.512;2022-11-03T05:07:23;8.50;;;4.00;;
75038;SDS011;63609;49.992;14.512;2022-11-03T05:10:01;8.32;;;3.70;;
75038;SDS011;63609;49.992;14.512;2022-11-03T05:12:32;9.63;;;4.15;;
75038;SDS011;63609;49.992;14.512;2022-11-03T05:14:58;7.72;;;3.80;;
75038;SDS011;63609;49.992;14.512;2022-11-03T05:17:30;10.20;;;4.63;;
75038;SDS011;63609;49.992;14.512;2022-11-03T05:19:59;9.07;;;4.40;;
75038;SDS011;63609;49.992;14.512;2022-11-03T05:22:28;13.55;;;4.80;;
75038;SDS011;63609;49.992;14.512;2022-11-03T05:25:01;12.23;;;5.57;;
75038;SDS011;63609;49.992;14.512;2022-11-03T05:27:48;10.75;;;5.70;;
75038;SDS011;63609;49.992;14.512;2022-11-03T05:30:15;11.40;;;5.43;;
75038;SDS011;63609;49.992;14.512;2022-11-03T05:32:41;12.30;;;5.15;;
75038;SDS011;63609;49.992;14.512;2022-11-03T05:35:14;15.35;;;6.00;;
75038;SDS011;63609;49.992;14.512;2022-11-03T05:37:46;8.77;;;4.90;;
75038;SDS011;63609;49.992;14.512;2022-11-03T05:42:48;8.90;;;4.40;;
75038;SDS011;63609;49.992;14.512;2022-11-03T05:45:22;11.60;;;5.07;;
75038;SDS011;63609;49.992;14.512;2022-11-03T05:47:52;11.98;;;4.72;;
75038;SDS011;63609;49.992;14.512;2022-11-03T05:55:42;10.00;;;5.40;;
75038;SDS011;63609;49.992;14.512;2022-11-03T06:01:15;9.55;;;4.45;;
75038;SDS011;63609;49.992;14.512;2022-11-03T06:03:47;10.88;;;4.85;;
75038;SDS011;63609;49.992;14.512;2022-11-03T06:06:15;10.40;;;5.13;;
75038;SDS011;63609;49.992;14.512;2022-11-03T06:08:47;13.55;;;5.35;;
75038;SDS011;63609;49.992;14.512;2022-11-03T06:11:20;10.57;;;5.38;;
75038;SDS011;63609;49.992;14.512;2022-11-03T06:13:58;8.77;;;5.15;;
75038;SDS011;63609;49.992;14.512;2022-11-03T06:19:19;10.43;;;5.30;;
75038;SDS011;63609;49.992;14.512;2022-11-03T06:21:46;11.55;;;5.60;;
75038;SDS011;63609;49.992;14.512;2022-11-03T06:24:15;10.77;;;5.38;;
75038;SDS011;63609;49.992;14.512;2022-11-03T06:26:44;11.10;;;6.25;;
75038;SDS011;63609;49.992;14.512;2022-11-03T06:29:14;14.80;;;6.72;;
75038;SDS011;63609;49.992;14.512;2022-11-03T06:31:47;12.65;;;5.85;;
75038;SDS011;63609;49.992;14.512;2022-11-03T06:37:22;13.10;;;6.10;;
75038;SDS011;63609;49.992;14.512;2022-11-03T06:39:53;11.38;;;6.22;;
75038;SDS011;63609;49.992;14.512;2022-11-03T06:42:25;14.57;;;6.93;;
75038;SDS011;63609;49.992;14.512;2022-11-03T06:44:57;14.75;;;7.15;;
75038;SDS011;63609;49.992;14.512;2022-11-03T06:47:27;16.15;;;7.57;;
75038;SDS011;63609;49.992;14.512;2022-11-03T06:49:58;15.10;;;7.65;;
75038;SDS011;63609;49.992;14.512;2022-11-03T06:52:27;17.80;;;8.63;;
75038;SDS011;63609;49.992;14.512;2022-11-03T06:55:20;16.98;;;7.00;;
75038;SDS011;63609;49.992;14.512;2022-11-03T06:57:45;13.68;;;6.32;;
75038;SDS011;63609;49.992;14.512;2022-11-03T07:00:18;13.40;;;6.47;;
75038;SDS011;63609;49.992;14.512;2022-11-03T07:05:57;15.77;;;6.82;;
75038;SDS011;63609;49.992;14.512;2022-11-03T07:08:45;14.38;;;7.25;;
75038;SDS011;63609;49.992;14.512;2022-11-03T07:11:15;14.27;;;6.57;;
75038;SDS011;63609;49.992;14.512;2022-11-03T07:13:45;13.60;;;6.00;;
75038;SDS011;63609;49.992;14.512;2022-11-03T07:16:26;16.70;;;6.53;;
75038;SDS011;63609;49.992;14.512;2022-11-03T07:18:55;12.38;;;5.88;;
75038;SDS011;63609;49.992;14.512;2022-11-03T07:22:00;15.02;;;6.82;;
75038;SDS011;63609;49.992;14.512;2022-11-03T07:26:58;12.80;;;6.72;;
75038;SDS011;63609;49.992;14.512;2022-11-03T07:29:28;18.60;;;7.05;;
75038;SDS011;63609;49.992;14.512;2022-11-03T07:31:56;11.18;;;6.90;;
75038;SDS011;63609;49.992;14.512;2022-11-03T07:34:29;15.38;;;7.05;;
75038;SDS011;63609;49.992;14.512;2022-11-03T07:36:58;16.20;;;7.13;;
75038;SDS011;63609;49.992;14.512;2022-11-03T07:39:27;14.38;;;6.80;;
75038;SDS011;63609;49.992;14.512;2022-11-03T07:44:59;10.02;;;5.25;;
75038;SDS011;63609;49.992;14.512;2022-11-03T07:47:25;9.15;;;4.32;;
75038;SDS011;63609;49.992;14.512;2022-11-03T07:49:53;9.32;;;5.05;;
75038;SDS011;63609;49.992;14.512;2022-11-03T07:52:22;9.77;;;4.63;;
75038;SDS011;63609;49.992;14.512;2022-11-03T07:54:50;11.05;;;4.93;;
75038;SDS011;63609;49.992;14.512;2022-11-03T07:57:29;12.68;;;6.38;;
75038;SDS011;63609;49.992;14.512;2022-11-03T08:00:00;12.68;;;5.85;;
75038;SDS011;63609;49.992;14.512;2022-11-03T08:02:48;11.63;;;5.50;;
75038;SDS011;63609;49.992;14.512;2022-11-03T08:05:18;11.27;;;5.47;;
75038;SDS011;63609;49.992;14.512;2022-11-03T08:07:49;17.33;;;6.03;;
75038;SDS011;63609;49.992;14.512;2022-11-03T08:10:16;11.32;;;5.65;;
75038;SDS011;63609;49.992;14.512;2022-11-03T08:12:42;9.38;;;5.93;;
75038;SDS011;63609;49.992;14.512;2022-11-03T08:15:09;12.32;;;5.93;;
75038;SDS011;63609;49.992;14.512;2022-11-03T08:17:36;8.43;;;5.65;;
75038;SDS011;63609;49.992;14.512;2022-11-03T08:20:03;12.63;;;6.45;;
75038;SDS011;63609;49.992;14.512;2022-11-03T08:22:30;9.93;;;5.93;;
75038;SDS011;63609;49.992;14.512;2022-11-03T08:24:57;11.55;;;5.65;;
75038;SDS011;63609;49.992;14.512;2022-11-03T08:27:23;13.45;;;6.10;;
75038;SDS011;63609;49.992;14.512;2022-11-03T08:29:50;11.52;;;5.57;;
75038;SDS011;63609;49.992;14.512;2022-11-03T08:32:16;13.57;;;6.38;;
75038;SDS011;63609;49.992;14.512;2022-11-03T08:37:10;11.00;;;5.55;;
75038;SDS011;63609;49.992;14.512;2022-11-03T08:42:03;12.90;;;6.68;;
75038;SDS011;63609;49.992;14.512;2022-11-03T08:46:56;10.65;;;5.78;;
75038;SDS011;63609;49.992;14.512;2022-11-03T08:49:24;11.07;;;5.43;;
75038;SDS011;63609;49.992;14.512;2022-11-03T08:51:51;11.05;;;5.57;;
75038;SDS011;63609;49.992;14.512;2022-11-03T08:54:17;11.43;;;5.38;;
75038;SDS011;63609;49.992;14.512;2022-11-03T08:56:44;11.20;;;5.40;;
75038;SDS011;63609;49.992;14.512;2022-11-03T08:59:12;11.20;;;5.75;;
75038;SDS011;63609;49.992;14.512;2022-11-03T09:01:38;12.15;;;6.40;;
75038;SDS011;63609;49.992;14.512;2022-11-03T09:04:05;10.60;;;6.03;;
75038;SDS011;63609;49.992;14.512;2022-11-03T09:06:32;12.50;;;6.47;;
75038;SDS011;63609;49.992;14.512;2022-11-03T09:08:59;10.90;;;6.20;;
75038;SDS011;63609;49.992;14.512;2022-11-03T09:11:46;13.15;;;5.97;;
75038;SDS011;63609;49.992;14.512;2022-11-03T09:14:13;13.05;;;6.10;;
75038;SDS011;63609;49.992;14.512;2022-11-03T09:16:40;12.18;;;5.80;;
75038;SDS011;63609;49.992;14.512;2022-11-03T09:19:06;11.30;;;6.05;;
75038;SDS011;63609;49.992;14.512;2022-11-03T09:21:33;13.95;;;6.97;;
75038;SDS011;63609;49.992;14.512;2022-11-03T09:24:00;11.40;;;7.00;;
75038;SDS011;63609;49.992;14.512;2022-11-03T09:26:27;21.10;;;8.40;;
75038;SDS011;63609;49.992;14.512;2022-11-03T09:28:54;15.90;;;7.13;;
75038;SDS011;63609;49.992;14.512;2022-11-03T09:33:47;14.75;;;6.47;;
75038;SDS011;63609;49.992;14.512;2022-11-03T09:38:40;14.30;;;7.50;;
75038;SDS011;63609;49.992;14.512;2022-11-03T09:41:06;14.18;;;6.95;;
75038;SDS011;63609;49.992;14.512;2022-11-03T09:43:53;11.60;;;5.93;;
75038;SDS011;63609;49.992;14.512;2022-11-03T09:46:23;10.75;;;5.95;;
75038;SDS011;63609;49.992;14.512;2022-11-03T09:48:50;13.80;;;5.93;;
75038;SDS011;63609;49.992;14.512;2022-11-03T09:51:18;12.38;;;6.25;;
75038;SDS011;63609;49.992;14.512;2022-11-03T09:53:47;13.63;;;6.55;;
75038;SDS011;63609;49.992;14.512;2022-11-03T09:56:17;12.57;;;6.07;;
75038;SDS011;63609;49.992;14.512;2022-11-03T09:58:47;15.10;;;7.60;;
75038;SDS011;63609;49.992;14.512;2022-11-03T10:01:19;16.88;;;7.35;;
75038;SDS011;63609;49.992;14.512;2022-11-03T10:03:47;12.55;;;6.75;;
75038;SDS011;63609;49.992;14.512;2022-11-03T10:06:14;12.40;;;7.05;;
75038;SDS011;63609;49.992;14.512;2022-11-03T10:08:44;14.60;;;6.93;;
75038;SDS011;63609;49.992;14.512;2022-11-03T10:11:12;13.10;;;6.50;;
75038;SDS011;63609;49.992;14.512;2022-11-03T10:13:41;13.32;;;6.13;;
75038;SDS011;63609;49.992;14.512;2022-11-03T10:16:14;11.70;;;6.03;;
75038;SDS011;63609;49.992;14.512;2022-11-03T10:18:45;11.52;;;6.68;;
75038;SDS011;63609;49.992;14.512;2022-11-03T10:21:17;11.45;;;6.18;;
75038;SDS011;63609;49.992;14.512;2022-11-03T10:23:46;14.80;;;5.72;;
75038;SDS011;63609;49.992;14.512;2022-11-03T10:26:13;11.10;;;6.80;;
75038;SDS011;63609;49.992;14.512;2022-11-03T10:29:00;13.60;;;6.55;;
75038;SDS011;63609;49.992;14.512;2022-11-03T10:31:34;16.13;;;6.20;;
75038;SDS011;63609;49.992;14.512;2022-11-03T10:34:03;10.20;;;5.25;;
75038;SDS011;63609;49.992;14.512;2022-11-03T10:36:32;13.60;;;6.30;;
75038;SDS011;63609;49.992;14.512;2022-11-03T10:39:01;12.77;;;5.88;;
75038;SDS011;63609;49.992;14.512;2022-11-03T10:41:55;11.75;;;5.63;;
75038;SDS011;63609;49.992;14.512;2022-11-03T10:44:26;9.32;;;5.80;;
75038;SDS011;63609;49.992;14.512;2022-11-03T10:46:56;10.50;;;5.53;;
75038;SDS011;63609;49.992;14.512;2022-11-03T10:49:28;13.60;;;5.70;;
75038;SDS011;63609;49.992;14.512;2022-11-03T10:52:19;6.43;;;2.88;;
75038;SDS011;63609;49.992;14.512;2022-11-03T10:54:49;6.63;;;2.88;;
75038;SDS011;63609;49.992;14.512;2022-11-03T10:57:17;4.80;;;2.50;;
75038;SDS011;63609;49.992;14.512;2022-11-03T10:59:45;6.47;;;2.60;;
75038;SDS011;63609;49.992;14.512;2022-11-03T11:02:15;7.45;;;3.15;;
75038;SDS011;63609;49.992;14.512;2022-11-03T11:04:48;5.82;;;3.00;;
75038;SDS011;63609;49.992;14.512;2022-11-03T11:07:23;6.45;;;2.53;;
75038;SDS011;63609;49.992;14.512;2022-11-03T11:09:52;5.30;;;2.90;;
75038;SDS011;63609;49.992;14.512;2022-11-03T11:12:21;6.70;;;2.80;;
75038;SDS011;63609;49.992;14.512;2022-11-03T11:14:54;6.47;;;3.00;;
75038;SDS011;63609;49.992;14.512;2022-11-03T11:17:43;9.93;;;2.90;;
75038;SDS011;63609;49.992;14.512;2022-11-03T11:22:49;6.95;;;2.30;;
75038;SDS011;63609;49.992;14.512;2022-11-03T11:25:16;7.22;;;2.78;;
75038;SDS011;63609;49.992;14.512;2022-11-03T11:32:55;7.72;;;3.08;;
75038;SDS011;63609;49.992;14.512;2022-11-03T11:41:09;6.43;;;3.22;;
75038;SDS011;63609;49.992;14.512;2022-11-03T11:43:35;6.57;;;3.28;;
75038;SDS011;63609;49.992;14.512;2022-11-03T11:51:23;7.63;;;2.95;;
75038;SDS011;63609;49.992;14.512;2022-11-03T11:53:50;9.35;;;3.30;;
75038;SDS011;63609;49.992;14.512;2022-11-03T11:56:44;7.05;;;3.22;;
75038;SDS011;63609;49.992;14.512;2022-11-03T11:59:20;7.68;;;3.38;;
75038;SDS011;63609;49.992;14.512;2022-11-03T12:01:52;9.02;;;3.80;;
75038;SDS011;63609;49.992;14.512;2022-11-03T12:04:23;7.18;;;3.15;;
75038;SDS011;63609;49.992;14.512;2022-11-03T12:06:52;9.90;;;4.53;;
75038;SDS011;63609;49.992;14.512;2022-11-03T12:09:22;9.57;;;4.75;;
75038;SDS011;63609;49.992;14.512;2022-11-03T12:11:51;9.27;;;5.18;;
75038;SDS011;63609;49.992;14.512;2022-11-03T12:14:33;10.05;;;4.97;;
75038;SDS011;63609;49.992;14.512;2022-11-03T12:19:43;9.10;;;4.70;;
75038;SDS011;63609;49.992;14.512;2022-11-03T12:29:56;11.73;;;4.72;;
75038;SDS011;63609;49.992;14.512;2022-11-03T12:32:24;10.70;;;4.93;;
75038;SDS011;63609;49.992;14.512;2022-11-03T12:35:04;12.60;;;4.88;;
75038;SDS011;63609;49.992;14.512;2022-11-03T12:37:34;12.27;;;5.13;;
75038;SDS011;63609;49.992;14.512;2022-11-03T12:40:01;11.85;;;4.43;;
75038;SDS011;63609;49.992;14.512;2022-11-03T12:42:28;10.73;;;4.93;;
75038;SDS011;63609;49.992;14.512;2022-11-03T12:44:55;12.95;;;5.13;;
75038;SDS011;63609;49.992;14.512;2022-11-03T12:47:22;9.70;;;4.93;;
75038;SDS011;63609;49.992;14.512;2022-11-03T12:49:50;10.52;;;4.80;;
75038;SDS011;63609;49.992;14.512;2022-11-03T12:52:17;11.93;;;5.43;;
75038;SDS011;63609;49.992;14.512;2022-11-03T12:54:43;8.32;;;4.57;;
75038;SDS011;63609;49.992;14.512;2022-11-03T12:57:10;12.30;;;5.80;;
75038;SDS011;63609;49.992;14.512;2022-11-03T12:59:37;9.43;;;4.25;;
75038;SDS011;63609;49.992;14.512;2022-11-03T13:02:04;9.63;;;4.50;;
75038;SDS011;63609;49.992;14.512;2022-11-03T13:04:31;14.25;;;5.43;;
75038;SDS011;63609;49.992;14.512;2022-11-03T13:06:58;11.65;;;4.38;;
75038;SDS011;63609;49.992;14.512;2022-11-03T13:09:24;9.45;;;4.50;;
75038;SDS011;63609;49.992;14.512;2022-11-03T13:11:51;9.50;;;4.57;;
75038;SDS011;63609;49.992;14.512;2022-11-03T13:14:36;9.73;;;4.82;;
75038;SDS011;63609;49.992;14.512;2022-11-03T13:17:03;8.77;;;4.72;;
75038;SDS011;63609;49.992;14.512;2022-11-03T13:19:30;9.70;;;5.10;;
75038;SDS011;63609;49.992;14.512;2022-11-03T13:21:56;14.15;;;4.95;;
75038;SDS011;63609;49.992;14.512;2022-11-03T13:24:23;10.02;;;4.90;;
75038;SDS011;63609;49.992;14.512;2022-11-03T13:26:50;10.65;;;4.93;;
75038;SDS011;63609;49.992;14.512;2022-11-03T13:29:16;9.40;;;5.30;;
75038;SDS011;63609;49.992;14.512;2022-11-03T13:31:44;9.90;;;4.78;;
75038;SDS011;63609;49.992;14.512;2022-11-03T13:34:11;10.73;;;5.50;;
75038;SDS011;63609;49.992;14.512;2022-11-03T13:36:38;8.10;;;4.40;;
75038;SDS011;63609;49.992;14.512;2022-11-03T13:39:05;12.00;;;5.22;;
75038;SDS011;63609;49.992;14.512;2022-11-03T13:41:31;17.02;;;4.82;;
75038;SDS011;63609;49.992;14.512;2022-11-03T13:43:58;10.95;;;4.55;;
75038;SDS011;63609;49.992;14.512;2022-11-03T13:46:25;12.20;;;5.10;;
75038;SDS011;63609;49.992;14.512;2022-11-03T13:48:52;9.10;;;4.63;;
75038;SDS011;63609;49.992;14.512;2022-11-03T13:51:39;9.35;;;4.90;;
75038;SDS011;63609;49.992;14.512;2022-11-03T13:54:06;9.13;;;4.63;;
75038;SDS011;63609;49.992;14.512;2022-11-03T13:56:52;10.00;;;5.20;;
75038;SDS011;63609;49.992;14.512;2022-11-03T13:59:39;10.68;;;5.13;;
75038;SDS011;63609;49.992;14.512;2022-11-03T14:02:06;11.85;;;4.88;;
75038;SDS011;63609;49.992;14.512;2022-11-03T14:04:53;8.15;;;4.30;;
75038;SDS011;63609;49.992;14.512;2022-11-03T14:07:20;14.05;;;5.18;;
75038;SDS011;63609;49.992;14.512;2022-11-03T14:09:46;9.25;;;4.78;;
75038;SDS011;63609;49.992;14.512;2022-11-03T14:12:13;8.70;;;5.00;;
75038;SDS011;63609;49.992;14.512;2022-11-03T14:15:00;9.57;;;4.95;;
75038;SDS011;63609;49.992;14.512;2022-11-03T14:17:30;9.13;;;4.47;;
75038;SDS011;63609;49.992;14.512;2022-11-03T14:19:57;10.93;;;5.20;;
75038;SDS011;63609;49.992;14.512;2022-11-03T14:24:56;8.95;;;4.70;;
75038;SDS011;63609;49.992;14.512;2022-11-03T14:27:23;10.98;;;4.70;;
75038;SDS011;63609;49.992;14.512;2022-11-03T14:29:50;7.32;;;4.78;;
75038;SDS011;63609;49.992;14.512;2022-11-03T14:32:17;9.48;;;4.93;;
75038;SDS011;63609;49.992;14.512;2022-11-03T14:34:44;10.48;;;5.13;;
75038;SDS011;63609;49.992;14.512;2022-11-03T14:37:11;8.40;;;4.72;;
75038;SDS011;63609;49.992;14.512;2022-11-03T14:39:38;10.68;;;5.15;;
75038;SDS011;63609;49.992;14.512;2022-11-03T14:42:07;12.18;;;5.30;;
75038;SDS011;63609;49.992;14.512;2022-11-03T14:44:41;9.45;;;5.00;;
75038;SDS011;63609;49.992;14.512;2022-11-03T14:47:09;10.07;;;4.97;;
75038;SDS011;63609;49.992;14.512;2022-11-03T14:49:38;10.07;;;4.93;;
75038;SDS011;63609;49.992;14.512;2022-11-03T14:52:05;11.07;;;4.93;;
75038;SDS011;63609;49.992;14.512;2022-11-03T14:54:33;9.52;;;5.35;;
75038;SDS011;63609;49.992;14.512;2022-11-03T14:57:01;9.45;;;5.53;;
75038;SDS011;63609;49.992;14.512;2022-11-03T14:59:28;12.48;;;5.75;;
75038;SDS011;63609;49.992;14.512;2022-11-03T15:01:55;12.50;;;5.88;;
75038;SDS011;63609;49.992;14.512;2022-11-03T15:04:23;11.32;;;5.45;;
75038;SDS011;63609;49.992;14.512;2022-11-03T15:06:49;13.15;;;5.88;;
75038;SDS011;63609;49.992;14.512;2022-11-03T15:09:16;12.02;;;5.70;;
75038;SDS011;63609;49.992;14.512;2022-11-03T15:11:43;11.10;;;6.20;;
75038;SDS011;63609;49.992;14.512;2022-11-03T15:14:11;17.90;;;6.60;;
75038;SDS011;63609;49.992;14.512;2022-11-03T15:16:38;12.75;;;5.25;;
75038;SDS011;63609;49.992;14.512;2022-11-03T15:19:05;10.50;;;5.28;;
75038;SDS011;63609;49.992;14.512;2022-11-03T15:21:33;14.90;;;6.75;;
75038;SDS011;63609;49.992;14.512;2022-11-03T15:24:00;11.27;;;4.85;;
75038;SDS011;63609;49.992;14.512;2022-11-03T15:26:46;10.60;;;5.10;;
75038;SDS011;63609;49.992;14.512;2022-11-03T15:29:13;12.93;;;6.40;;
75038;SDS011;63609;49.992;14.512;2022-11-03T15:31:40;13.23;;;5.63;;
75038;SDS011;63609;49.992;14.512;2022-11-03T15:34:13;11.98;;;5.00;;
75038;SDS011;63609;49.992;14.512;2022-11-03T15:36:39;9.43;;;5.75;;
75038;SDS011;63609;49.992;14.512;2022-11-03T15:39:06;15.88;;;6.60;;
75038;SDS011;63609;49.992;14.512;2022-11-03T15:41:33;13.30;;;6.47;;
75038;SDS011;63609;49.992;14.512;2022-11-03T15:43:59;12.95;;;6.18;;
75038;SDS011;63609;49.992;14.512;2022-11-03T15:46:26;13.07;;;6.45;;
75038;SDS011;63609;49.992;14.512;2022-11-03T15:48:53;14.13;;;6.65;;
75038;SDS011;63609;49.992;14.512;2022-11-03T15:51:22;13.23;;;6.93;;
75038;SDS011;63609;49.992;14.512;2022-11-03T15:53:48;14.55;;;6.57;;
75038;SDS011;63609;49.992;14.512;2022-11-03T15:56:23;14.95;;;6.80;;
75038;SDS011;63609;49.992;14.512;2022-11-03T15:58:50;14.35;;;6.80;;
75038;SDS011;63609;49.992;14.512;2022-11-03T16:01:17;13.48;;;6.97;;
75038;SDS011;63609;49.992;14.512;2022-11-03T16:03:44;13.10;;;6.82;;
75038;SDS011;63609;49.992;14.512;2022-11-03T16:06:10;15.57;;;7.90;;
75038;SDS011;63609;49.992;14.512;2022-11-03T16:08:38;22.77;;;8.25;;
75038;SDS011;63609;49.992;14.512;2022-11-03T16:11:05;24.02;;;10.23;;
75038;SDS011;63609;49.992;14.512;2022-11-03T16:13:32;22.30;;;11.10;;
75038;SDS011;63609;49.992;14.512;2022-11-03T16:18:25;17.42;;;10.30;;
75038;SDS011;63609;49.992;14.512;2022-11-03T16:20:51;18.85;;;9.00;;
75038;SDS011;63609;49.992;14.512;2022-11-03T16:23:18;16.52;;;8.43;;
75038;SDS011;63609;49.992;14.512;2022-11-03T16:25:45;16.98;;;8.85;;
75038;SDS011;63609;49.992;14.512;2022-11-03T16:28:12;16.33;;;7.80;;